Time;durP1;ratioP1;P1;durP2;ratioP2;P2;SDS_P1;SDS_P2;PMS_P1;PMS_P2;Temp;Humidity;BMP_temperature;BMP_pressure;BME280_temperature;BME280_humidity;BME280_pressure;Samples;Min_cycle;Max_cycle;Signal;HPM_P1;HPM_P2
2022/07/02 00:04:20;;;;;;;8.90;2.47;;;;;;;;;;21179966;28;20089;-58
2022/07/02 00:14:21;;;;;;;9.48;3.92;;;;;;;;;;21174341;28;20097;-57
2022/07/02 00:24:23;;;;;;;8.75;2.60;;;;;;;;;;21171976;28;20051;-56
2022/07/02 00:34:25;;;;;;;7.70;2.40;;;;;;;;;;21170785;28;20047;-56
2022/07/02 00:44:30;;;;;;;11.95;3.08;;;;;;;;;;21170363;28;20095;-57
2022/07/02 00:54:32;;;;;;;6.72;2.90;;;;;;;;;;21168684;28;20051;-57
2022/07/02 01:04:34;;;;;;;6.40;2.60;;;;;;;;;;21167409;28;20066;-58
2022/07/02 01:14:37;;;;;;;11.40;2.70;;;;;;;;;;21167332;28;20048;-58
2022/07/02 01:24:40;;;;;;;11.82;2.75;;;;;;;;;;21167212;28;20052;-58
2022/07/02 01:34:45;;;;;;;9.88;2.80;;;;;;;;;;21167082;28;20047;-59
2022/07/02 01:44:51;;;;;;;8.18;2.65;;;;;;;;;;21165251;28;20491;-57
2022/07/02 01:54:58;;;;;;;8.70;2.47;;;;;;;;;;21164571;28;20483;-57
2022/07/02 02:05:05;;;;;;;6.47;2.65;;;;;;;;;;21163698;28;20062;-57
2022/07/02 02:15:13;;;;;;;9.48;3.20;;;;;;;;;;21163761;28;20122;-57
2022/07/02 02:25:20;;;;;;;6.30;3.10;;;;;;;;;;21163761;28;20131;-56
2022/07/02 02:35:25;;;;;;;9.43;3.03;;;;;;;;;;21166689;28;20044;-59
2022/07/02 02:45:29;;;;;;;6.40;2.72;;;;;;;;;;21179802;28;20131;-57
2022/07/02 02:55:32;;;;;;;9.35;3.10;;;;;;;;;;21179525;28;20084;-57
2022/07/02 03:05:36;;;;;;;7.03;2.60;;;;;;;;;;21178336;28;20140;-57
2022/07/02 03:15:38;;;;;;;7.15;2.50;;;;;;;;;;21177003;28;20044;-57
2022/07/02 03:25:41;;;;;;;5.25;2.60;;;;;;;;;;21175870;28;20055;-58
2022/07/02 03:35:44;;;;;;;6.85;2.88;;;;;;;;;;21175856;28;20505;-56
2022/07/02 03:45:47;;;;;;;8.40;2.70;;;;;;;;;;21176172;28;20048;-57
2022/07/02 03:55:49;;;;;;;5.00;2.70;;;;;;;;;;21173869;28;20130;-56
2022/07/02 04:05:52;;;;;;;10.25;4.65;;;;;;;;;;21173076;28;20059;-58
2022/07/02 04:15:55;;;;;;;4.93;2.53;;;;;;;;;;21175244;28;20051;-57
2022/07/02 04:25:57;;;;;;;7.32;2.60;;;;;;;;;;21175370;28;20486;-58
2022/07/02 04:35:59;;;;;;;10.07;2.80;;;;;;;;;;21179668;28;20480;-57
2022/07/02 04:46:02;;;;;;;9.65;3.90;;;;;;;;;;21174064;28;20047;-62
2022/07/02 04:56:06;;;;;;;9.00;3.78;;;;;;;;;;21176987;28;20127;-57
2022/07/02 05:06:08;;;;;;;7.88;3.05;;;;;;;;;;21174417;28;20051;-57
2022/07/02 05:16:10;;;;;;;8.57;3.25;;;;;;;;;;21171842;28;20040;-59
2022/07/02 05:26:13;;;;;;;7.22;3.33;;;;;;;;;;21173803;28;20126;-57
2022/07/02 05:36:15;;;;;;;11.00;3.33;;;;;;;;;;21170873;28;20167;-63
2022/07/02 05:46:17;;;;;;;8.82;3.33;;;;;;;;;;21170660;28;20100;-58
2022/07/02 05:56:20;;;;;;;9.65;3.53;;;;;;;;;;21165086;28;20043;-57
2022/07/02 06:16:43;;;;;;;6.93;3.30;;;;;;;;;;21163723;28;20100;-56
2022/07/02 06:26:45;;;;;;;5.65;3.30;;;;;;;;;;21163043;28;20047;-57
2022/07/02 06:36:47;;;;;;;6.25;3.58;;;;;;;;;;21162518;28;20048;-57
2022/07/02 06:46:49;;;;;;;8.10;3.50;;;;;;;;;;21162258;28;20483;-56
2022/07/02 06:56:51;;;;;;;8.20;3.65;;;;;;;;;;21162863;28;20055;-59
2022/07/02 07:06:56;;;;;;;8.80;3.28;;;;;;;;;;21161029;28;20152;-57
2022/07/02 07:16:58;;;;;;;7.82;3.42;;;;;;;;;;21161126;28;20055;-55
2022/07/02 07:27:00;;;;;;;6.38;3.17;;;;;;;;;;21169543;28;20047;-56
2022/07/02 07:37:02;;;;;;;6.82;3.40;;;;;;;;;;21175875;28;20048;-56
2022/07/02 07:47:04;;;;;;;10.07;3.08;;;;;;;;;;21174813;28;20548;-56
2022/07/02 07:57:05;;;;;;;10.50;3.22;;;;;;;;;;21155647;28;20047;-57
2022/07/02 08:07:07;;;;;;;4.85;2.22;;;;;;;;;;21172356;28;20063;-57
2022/07/02 08:17:09;;;;;;;7.95;2.90;;;;;;;;;;21172646;28;20144;-57
2022/07/02 08:27:12;;;;;;;9.73;2.78;;;;;;;;;;21171514;28;20553;-57
2022/07/02 08:37:16;;;;;;;7.65;2.65;;;;;;;;;;21170758;28;20047;-57
2022/07/02 08:47:19;;;;;;;10.63;2.22;;;;;;;;;;21170779;28;20352;-59
2022/07/02 08:57:22;;;;;;;4.43;2.40;;;;;;;;;;21169899;28;20406;-57
2022/07/02 09:07:24;;;;;;;9.82;3.35;;;;;;;;;;21167980;28;20083;-62
2022/07/02 09:17:26;;;;;;;7.45;2.60;;;;;;;;;;21168271;28;20122;-57
2022/07/02 09:27:28;;;;;;;5.60;2.40;;;;;;;;;;21165389;28;20058;-58
2022/07/02 09:37:31;;;;;;;10.25;2.28;;;;;;;;;;21164873;28;20511;-58
2022/07/02 09:47:36;;;;;;;8.55;2.53;;;;;;;;;;21162781;28;20083;-57
2022/07/02 09:57:41;;;;;;;9.57;2.92;;;;;;;;;;21163950;28;20463;-58
2022/07/02 10:07:43;;;;;;;5.13;2.83;;;;;;;;;;21163338;28;20136;-59
2022/07/02 10:17:45;;;;;;;9.10;3.05;;;;;;;;;;21162395;28;20043;-58
2022/07/02 10:27:48;;;;;;;33.38;5.10;;;;;;;;;;21161920;28;20047;-58
2022/07/02 10:37:55;;;;;;;7.90;2.50;;;;;;;;;;21161691;28;20074;-58
2022/07/02 10:48:04;;;;;;;4.88;2.30;;;;;;;;;;21161290;28;20130;-57
2022/07/02 10:58:07;;;;;;;5.45;2.42;;;;;;;;;;21166178;28;20066;-54
2022/07/02 11:08:29;;;;;;;7.13;2.03;;;;;;;;;;21177455;28;20135;-56
2022/07/02 11:18:32;;;;;;;5.82;2.38;;;;;;;;;;21176841;28;20091;-56
2022/07/02 11:28:34;;;;;;;5.75;2.25;;;;;;;;;;21157585;28;20044;-59
2022/07/02 11:38:40;;;;;;;10.00;2.35;;;;;;;;;;21179871;28;20043;-62
2022/07/02 11:48:42;;;;;;;7.13;2.40;;;;;;;;;;21177236;28;20138;-57
2022/07/02 11:58:45;;;;;;;6.90;3.03;;;;;;;;;;21174400;28;20055;-57
2022/07/02 12:08:47;;;;;;;7.90;2.10;;;;;;;;;;21172208;28;20062;-58
2022/07/02 12:19:06;;;;;;;10.88;2.70;;;;;;;;;;21173912;28;20123;-61
2022/07/02 12:39:41;;;;;;;5.75;2.53;;;;;;;;;;21174151;28;20047;-60
2022/07/02 12:49:51;;;;;;;6.15;2.28;;;;;;;;;;21171007;28;20051;-59
2022/07/02 12:59:53;;;;;;;7.60;2.17;;;;;;;;;;21169366;28;20043;-59
2022/07/02 13:09:55;;;;;;;10.95;2.17;;;;;;;;;;21166876;28;20062;-61
2022/07/02 13:19:57;;;;;;;5.45;1.60;;;;;;;;;;21166693;28;20086;-57
2022/07/02 13:29:59;;;;;;;5.65;2.08;;;;;;;;;;21167386;28;20047;-59
2022/07/02 13:40:02;;;;;;;7.18;1.83;;;;;;;;;;21165420;28;20075;-60
2022/07/02 13:50:04;;;;;;;4.93;1.80;;;;;;;;;;21164262;28;20083;-60
2022/07/02 14:00:07;;;;;;;5.05;1.80;;;;;;;;;;21164507;28;20075;-58
2022/07/02 14:10:08;;;;;;;5.53;1.70;;;;;;;;;;21162965;28;20108;-59
2022/07/02 14:20:10;;;;;;;5.03;1.58;;;;;;;;;;21162964;28;20128;-60
2022/07/02 14:30:12;;;;;;;4.38;2.10;;;;;;;;;;21162161;28;20086;-60
2022/07/02 14:40:14;;;;;;;4.65;1.63;;;;;;;;;;21179420;28;20414;-61
2022/07/02 14:50:16;;;;;;;7.32;2.42;;;;;;;;;;21160078;28;20099;-60
2022/07/02 15:00:17;;;;;;;8.73;2.03;;;;;;;;;;21176998;28;20120;-60
2022/07/02 15:10:19;;;;;;;4.80;1.80;;;;;;;;;;21177263;28;20495;-61
2022/07/02 15:20:21;;;;;;;11.07;4.20;;;;;;;;;;21175046;28;20096;-62
2022/07/02 15:30:33;;;;;;;10.07;2.28;;;;;;;;;;21174925;28;20047;-60
2022/07/02 15:40:37;;;;;;;5.82;1.92;;;;;;;;;;21174516;28;20058;-61
2022/07/02 15:50:39;;;;;;;9.25;2.50;;;;;;;;;;21172441;28;20073;-58
2022/07/02 16:00:40;;;;;;;7.97;2.67;;;;;;;;;;21174231;28;20075;-59
2022/07/02 16:10:42;;;;;;;7.75;1.90;;;;;;;;;;21173313;28;20044;-58
2022/07/02 16:20:44;;;;;;;7.22;2.00;;;;;;;;;;21154467;28;20157;-57
2022/07/02 16:30:49;;;;;;;4.55;1.33;;;;;;;;;;21171754;28;20467;-61
2022/07/02 16:40:51;;;;;;;3.80;1.88;;;;;;;;;;21169441;28;20125;-58
2022/07/02 16:50:53;;;;;;;5.22;1.83;;;;;;;;;;21169083;28;20079;-56
2022/07/02 17:00:56;;;;;;;4.25;1.67;;;;;;;;;;21168753;28;20039;-57
2022/07/02 17:21:19;;;;;;;8.50;2.17;;;;;;;;;;21167006;28;20044;-57
2022/07/02 17:31:20;;;;;;;9.35;2.00;;;;;;;;;;21165399;28;20489;-60
2022/07/02 17:41:22;;;;;;;6.72;1.95;;;;;;;;;;21165330;28;20055;-60
2022/07/02 17:51:24;;;;;;;8.20;1.85;;;;;;;;;;21164283;28;20422;-59
2022/07/02 18:01:26;;;;;;;7.32;2.00;;;;;;;;;;21164985;28;20123;-58
2022/07/02 18:11:28;;;;;;;7.15;1.92;;;;;;;;;;21164025;28;20048;-58
2022/07/02 18:21:30;;;;;;;5.65;1.92;;;;;;;;;;21166235;28;20050;-60
2022/07/02 18:31:32;;;;;;;7.55;2.83;;;;;;;;;;21163394;28;20051;-58
2022/07/02 18:41:34;;;;;;;12.27;4.30;;;;;;;;;;21166451;28;20090;-60
2022/07/02 18:51:36;;;;;;;11.25;2.65;;;;;;;;;;21163574;28;20051;-58
2022/07/02 19:01:38;;;;;;;8.38;2.40;;;;;;;;;;21162259;28;20052;-61
2022/07/02 19:11:42;;;;;;;11.65;3.08;;;;;;;;;;21161226;28;20052;-59
2022/07/02 19:21:44;;;;;;;8.20;2.85;;;;;;;;;;21171340;28;20536;-61
2022/07/02 19:31:46;;;;;;;12.13;3.97;;;;;;;;;;21176562;28;20091;-59
2022/07/02 19:41:48;;;;;;;7.18;3.75;;;;;;;;;;21174872;28;20198;-61
2022/07/02 19:51:50;;;;;;;9.23;3.30;;;;;;;;;;21173590;28;20055;-61
2022/07/02 20:01:53;;;;;;;19.55;4.55;;;;;;;;;;21173331;28;20052;-60
2022/07/02 20:11:55;;;;;;;8.48;3.63;;;;;;;;;;21172092;28;20051;-59
2022/07/02 20:21:57;;;;;;;17.35;4.30;;;;;;;;;;21172993;28;20055;-58
2022/07/02 20:32:01;;;;;;;10.00;3.60;;;;;;;;;;21173260;28;20047;-62
2022/07/02 20:42:04;;;;;;;12.68;4.63;;;;;;;;;;21174919;28;20131;-60
2022/07/02 20:52:05;;;;;;;12.15;3.78;;;;;;;;;;21171201;28;20078;-62
2022/07/02 21:02:07;;;;;;;13.52;4.97;;;;;;;;;;21150696;28;20083;-61
2022/07/02 21:12:09;;;;;;;15.73;4.85;;;;;;;;;;21170433;28;20433;-60
2022/07/02 21:22:11;;;;;;;10.77;4.40;;;;;;;;;;21169341;28;20048;-61
2022/07/02 21:32:13;;;;;;;16.85;5.43;;;;;;;;;;21168896;28;20086;-60
2022/07/02 21:42:15;;;;;;;13.43;3.80;;;;;;;;;;21166664;28;20127;-60
2022/07/02 21:52:16;;;;;;;13.63;4.28;;;;;;;;;;21167014;28;20047;-59
2022/07/02 22:02:18;;;;;;;20.33;4.95;;;;;;;;;;21157000;28;20055;-58
2022/07/02 22:12:20;;;;;;;20.95;5.60;;;;;;;;;;21165271;28;20083;-61
2022/07/02 22:22:21;;;;;;;16.65;3.97;;;;;;;;;;21165052;28;20047;-60
2022/07/02 22:32:24;;;;;;;22.17;4.07;;;;;;;;;;21165614;28;20106;-59
2022/07/02 22:42:26;;;;;;;24.65;4.82;;;;;;;;;;21162714;28;20047;-60
2022/07/02 22:52:28;;;;;;;18.92;4.25;;;;;;;;;;21166765;28;20059;-59
2022/07/02 23:02:30;;;;;;;23.95;4.15;;;;;;;;;;21179701;28;20471;-61
2022/07/02 23:12:31;;;;;;;22.67;4.03;;;;;;;;;;21178618;28;20059;-58
2022/07/02 23:22:33;;;;;;;11.25;2.85;;;;;;;;;;21178137;28;20047;-60
2022/07/02 23:32:36;;;;;;;15.43;2.83;;;;;;;;;;21176359;28;20044;-60
2022/07/02 23:42:38;;;;;;;14.10;2.83;;;;;;;;;;21176746;28;20136;-58
2022/07/02 23:52:39;;;;;;;16.60;3.45;;;;;;;;;;21175747;28;20479;-57
